Madison, WI (53718)

10:27 PM CST on February 07, 2016 (GMT -0600)
Westport | | Change Station
CLOSE
Current Station
Personal Weather Station
Location: Waunakee, WI
Elevation: 873 ft
Nearby Weather Stations

Elev 873 ft 43.16 °N, 89.42 °W | Updated 23 seconds ago

Overcast
Overcast
33.9 °F
Feels Like 34 °F
N
1.0
Wind Variable Wind from WSW
Gusts 6.0 mph

Today
High -- | Low -- °F
--% Chance of Precip.
Yesterday
High -- | Low -- °F
Precip. -- in
Pressure 29.67 in
Visibility 10.0 miles
Clouds Overcast 5500 ft
Windchill 34 °F
Dew Point 29 °F
Humidity 83%
Rainfall 0.00 in
Snow Depth Not available.
7:06 AM 5:17 PM
Waning Crescent, 0% visible
METAR KMSN 080353Z 23007KT 10SM OVC055 01/M03 A2965 RMK AO2 SLP047 T00111028
Pressure 29.67 in
Visibility 10.0 miles
Clouds Overcast 5500 ft
Windchill 34 °F
Dew Point 29 °F
Humidity 83%
Rainfall 0.00 in
Snow Depth Not available.
7:06 AM 5:17 PM
Waning Crescent, 0% visible
METAR KMSN 080353Z 23007KT 10SM OVC055 01/M03 A2965 RMK AO2 SLP047 T00111028

10-Day Weather Forecast

Almanac

Astronomy

Feb. 07, 2016 Rise Set
Actual Time
Civil Twilight
Nautical Twilight
Astronomical Twilight
Moon
Length of Visible Light
Length of Day
Tomorrow will be .
, % of the Moon is Illuminated

Today's Extremes

State Highs State Lows

Community

WunderPhotos

Upload Photos

1,891,379 photos uploaded!

WunderBlog® & News

Nearby

Air Quality

  Air Quality AQ Index Pollutant
Not available.

Snow Depth

Station Depth Elevation

Earthquake Activity

City Distance Mag. Time & Date
Minimum magnitude displayed is 2.5.

Coastal Water Temperatures

Place Temperature

Stations

Nearby Weather Stations

Station Location Temp. Windchill Dew Point Humidity Wind Precip. Elev Updated Type
                   

Watches & Warnings

There are currently no watches in effect.